Time;durP1;ratioP1;P1;durP2;ratioP2;P2;SDS_P1;SDS_P2;PMS_P1;PMS_P2;Temp;Humidity;BMP_temperature;BMP_pressure;BME280_temperature;BME280_humidity;BME280_pressure;Samples;Min_cycle;Max_cycle;Signal;HPM_P1;HPM_P2
2023/05/31 00:01:28;;;;;;;5.82;4.38;;;;;;;;;;5047004;28;20064;-67
2023/05/31 00:03:53;;;;;;;4.78;4.45;;;;;;;;;;5046489;28;20033;-66
2023/05/31 00:06:19;;;;;;;3.95;3.75;;;;;;;;;;5045138;28;20485;-67
2023/05/31 00:08:44;;;;;;;4.60;4.20;;;;;;;;;;5047337;28;20041;-67
2023/05/31 00:11:10;;;;;;;4.53;4.22;;;;;;;;;;5047299;28;20737;-66
2023/05/31 00:13:38;;;;;;;4.32;4.10;;;;;;;;;;5047046;28;20035;-67
2023/05/31 00:16:05;;;;;;;4.15;3.95;;;;;;;;;;5045609;28;20090;-67
2023/05/31 00:18:31;;;;;;;4.20;3.90;;;;;;;;;;5042596;28;20515;-66
2023/05/31 00:20:56;;;;;;;4.28;4.07;;;;;;;;;;5044226;28;20072;-66
2023/05/31 00:23:22;;;;;;;4.00;3.75;;;;;;;;;;5052620;28;20025;-66
2023/05/31 00:25:47;;;;;;;4.65;4.20;;;;;;;;;;5045387;28;20476;-66
2023/05/31 00:28:13;;;;;;;4.20;3.90;;;;;;;;;;5049096;28;20542;-66
2023/05/31 00:30:38;;;;;;;4.63;4.15;;;;;;;;;;5045522;28;20044;-66
2023/05/31 00:33:04;;;;;;;4.38;4.07;;;;;;;;;;5044944;28;20122;-66
2023/05/31 00:35:30;;;;;;;4.93;4.30;;;;;;;;;;5045085;28;20668;-66
2023/05/31 00:37:55;;;;;;;4.82;4.40;;;;;;;;;;5046438;28;20033;-66
2023/05/31 00:40:21;;;;;;;4.28;4.03;;;;;;;;;;5045839;28;20032;-66
2023/05/31 00:42:47;;;;;;;4.50;4.20;;;;;;;;;;5044209;28;20192;-66
2023/05/31 00:45:12;;;;;;;4.82;4.10;;;;;;;;;;5046251;28;20485;-66
2023/05/31 00:47:38;;;;;;;10.20;4.43;;;;;;;;;;5045997;28;20044;-67
2023/05/31 00:50:05;;;;;;;4.88;4.40;;;;;;;;;;5045833;28;20029;-67
2023/05/31 00:52:32;;;;;;;4.05;3.75;;;;;;;;;;5044433;28;20083;-67
2023/05/31 00:55:01;;;;;;;4.28;3.97;;;;;;;;;;5045085;28;20033;-66
2023/05/31 00:57:27;;;;;;;5.13;4.72;;;;;;;;;;5046239;28;20112;-66
2023/05/31 00:59:52;;;;;;;4.47;4.10;;;;;;;;;;5044810;28;20112;-66
2023/05/31 01:02:20;;;;;;;4.80;4.43;;;;;;;;;;5045881;28;20029;-66
2023/05/31 01:04:46;;;;;;;4.47;4.20;;;;;;;;;;5044748;28;20040;-66
2023/05/31 01:07:11;;;;;;;4.50;4.15;;;;;;;;;;5043138;28;20036;-66
2023/05/31 01:09:42;;;;;;;4.65;4.05;;;;;;;;;;5045583;28;20032;-66
2023/05/31 01:12:08;;;;;;;5.07;4.45;;;;;;;;;;5044187;28;20037;-66
2023/05/31 01:15:32;;;;;;;4.43;4.13;;;;;;;;;;5045534;28;20073;-66
2023/05/31 01:18:18;;;;;;;4.68;4.38;;;;;;;;;;5036657;28;20041;-66
2023/05/31 01:20:49;;;;;;;4.65;4.35;;;;;;;;;;5024320;28;20060;-66
2023/05/31 01:23:34;;;;;;;6.07;4.60;;;;;;;;;;5039351;28;20128;-67
2023/05/31 01:26:06;;;;;;;5.57;4.43;;;;;;;;;;5021919;28;20163;-67
2023/05/31 01:28:38;;;;;;;4.70;4.40;;;;;;;;;;5040758;28;20064;-67
2023/05/31 01:31:08;;;;;;;4.40;4.10;;;;;;;;;;5023330;28;20102;-67
2023/05/31 01:33:35;;;;;;;4.75;4.40;;;;;;;;;;5038317;28;20041;-67
2023/05/31 01:36:03;;;;;;;6.40;4.18;;;;;;;;;;5025738;28;20049;-67
2023/05/31 01:38:29;;;;;;;4.50;4.20;;;;;;;;;;5039557;28;20040;-68
2023/05/31 01:40:56;;;;;;;4.72;4.40;;;;;;;;;;5020178;28;20039;-66
2023/05/31 01:43:22;;;;;;;5.20;4.28;;;;;;;;;;5023986;28;20037;-66
2023/05/31 01:45:48;;;;;;;4.72;4.30;;;;;;;;;;5024102;28;20860;-66
2023/05/31 01:48:14;;;;;;;4.53;4.13;;;;;;;;;;5028926;28;20045;-66
2023/05/31 01:50:43;;;;;;;4.55;4.25;;;;;;;;;;5041768;28;20048;-66
2023/05/31 01:53:10;;;;;;;4.50;4.20;;;;;;;;;;5043053;28;20036;-66
2023/05/31 01:55:36;;;;;;;4.45;4.18;;;;;;;;;;5041501;28;20785;-66
2023/05/31 01:58:04;;;;;;;8.48;4.45;;;;;;;;;;5043626;28;20048;-66
2023/05/31 02:00:30;;;;;;;4.63;4.27;;;;;;;;;;5041951;28;20381;-66
2023/05/31 02:02:58;;;;;;;4.82;4.47;;;;;;;;;;5045080;28;20037;-66
2023/05/31 02:05:26;;;;;;;4.65;4.30;;;;;;;;;;5045246;28;20036;-67
2023/05/31 02:07:53;;;;;;;4.00;3.80;;;;;;;;;;5043418;28;20043;-66
2023/05/31 02:10:19;;;;;;;5.55;4.82;;;;;;;;;;5042092;28;20377;-66
2023/05/31 02:12:45;;;;;;;4.43;4.13;;;;;;;;;;5043646;28;20116;-66
2023/05/31 02:15:12;;;;;;;6.95;4.40;;;;;;;;;;5043033;28;20124;-66
2023/05/31 02:17:42;;;;;;;4.30;4.00;;;;;;;;;;5042302;28;20106;-66
2023/05/31 02:20:13;;;;;;;4.65;4.25;;;;;;;;;;5043110;28;20564;-66
2023/05/31 02:22:40;;;;;;;4.22;4.03;;;;;;;;;;5043470;28;20036;-66
2023/05/31 02:25:10;;;;;;;4.70;4.40;;;;;;;;;;5043613;28;20033;-66
2023/05/31 02:27:39;;;;;;;4.70;4.40;;;;;;;;;;5044296;28;20029;-67
2023/05/31 02:30:06;;;;;;;5.05;4.35;;;;;;;;;;5043125;28;20037;-67
2023/05/31 02:32:35;;;;;;;4.07;3.88;;;;;;;;;;5042397;28;20041;-67
2023/05/31 02:35:08;;;;;;;;;;;;;;;;;;5043663;28;20553;-66
2023/05/31 02:37:34;;;;;;;4.72;4.32;;;;;;;;;;5044752;28;20587;-67
2023/05/31 02:40:00;;;;;;;4.53;4.22;;;;;;;;;;5042234;28;20033;-66
2023/05/31 02:42:26;;;;;;;4.72;4.32;;;;;;;;;;5040211;28;20325;-67
2023/05/31 02:44:52;;;;;;;4.82;4.43;;;;;;;;;;5044556;28;20564;-66
2023/05/31 02:47:17;;;;;;;4.70;4.18;;;;;;;;;;5043463;28;20078;-66
2023/05/31 02:49:43;;;;;;;4.63;4.30;;;;;;;;;;5034405;28;20075;-66
2023/05/31 02:52:10;;;;;;;4.80;4.25;;;;;;;;;;5041385;28;20524;-66
2023/05/31 02:54:54;;;;;;;4.63;4.22;;;;;;;;;;5046538;28;20033;-66
2023/05/31 02:57:24;;;;;;;4.40;4.10;;;;;;;;;;5043150;28;20403;-66
2023/05/31 02:59:55;;;;;;;4.38;4.07;;;;;;;;;;5042167;28;20036;-66
2023/05/31 03:02:21;;;;;;;4.60;4.20;;;;;;;;;;5041378;28;20037;-66
2023/05/31 03:04:55;;;;;;;4.70;4.30;;;;;;;;;;5041273;28;20021;-66
2023/05/31 03:07:22;;;;;;;6.97;4.90;;;;;;;;;;5040035;28;20041;-66
2023/05/31 03:09:47;;;;;;;5.03;4.57;;;;;;;;;;5043147;28;20040;-66
2023/05/31 03:12:13;;;;;;;4.55;4.25;;;;;;;;;;5042898;28;20040;-67
2023/05/31 03:14:40;;;;;;;4.70;4.40;;;;;;;;;;5042202;28;20071;-67
2023/05/31 03:17:06;;;;;;;4.82;4.40;;;;;;;;;;5041381;28;20040;-67
2023/05/31 03:19:32;;;;;;;4.90;4.60;;;;;;;;;;5042696;28;20033;-66
2023/05/31 03:22:00;;;;;;;4.63;4.30;;;;;;;;;;5042924;28;20059;-67
2023/05/31 03:24:29;;;;;;;5.32;4.82;;;;;;;;;;5023697;28;20562;-66
2023/05/31 03:26:57;;;;;;;5.25;4.82;;;;;;;;;;5074094;28;20112;-67
2023/05/31 03:29:24;;;;;;;4.82;4.47;;;;;;;;;;5047247;28;20111;-67
2023/05/31 03:31:50;;;;;;;4.95;4.55;;;;;;;;;;5046038;28;20124;-67
2023/05/31 03:34:15;;;;;;;4.90;4.60;;;;;;;;;;5045654;28;20021;-67
2023/05/31 03:36:41;;;;;;;5.30;4.90;;;;;;;;;;5045831;28;20048;-67
2023/05/31 03:39:27;;;;;;;4.50;4.20;;;;;;;;;;5045797;28;20086;-67
2023/05/31 03:41:53;;;;;;;4.70;4.40;;;;;;;;;;5046197;28;20040;-67
2023/05/31 03:44:18;;;;;;;5.00;4.63;;;;;;;;;;5042654;28;20028;-67
2023/05/31 03:46:44;;;;;;;4.85;4.55;;;;;;;;;;5044045;28;20051;-67
2023/05/31 03:49:10;;;;;;;5.28;4.85;;;;;;;;;;5045667;28;20040;-67
2023/05/31 03:51:37;;;;;;;5.25;4.90;;;;;;;;;;5046166;28;20060;-67
2023/05/31 03:54:03;;;;;;;5.20;4.43;;;;;;;;;;5044721;28;20025;-67
2023/05/31 03:56:29;;;;;;;4.80;4.50;;;;;;;;;;5045779;28;20492;-67
2023/05/31 03:58:54;;;;;;;4.95;4.40;;;;;;;;;;5045567;28;20037;-67
2023/05/31 04:01:20;;;;;;;4.93;4.55;;;;;;;;;;5043961;28;20507;-67
2023/05/31 04:03:48;;;;;;;4.82;4.53;;;;;;;;;;5045398;28;20064;-67
2023/05/31 04:06:13;;;;;;;4.90;4.60;;;;;;;;;;5046919;28;20061;-67
2023/05/31 04:08:39;;;;;;;5.22;4.80;;;;;;;;;;5045412;28;20056;-67
2023/05/31 04:11:04;;;;;;;5.50;5.10;;;;;;;;;;5044013;28;20055;-67
2023/05/31 04:13:30;;;;;;;5.28;4.78;;;;;;;;;;5045305;28;20139;-67
2023/05/31 04:15:56;;;;;;;5.35;4.97;;;;;;;;;;5045306;28;20041;-67
2023/05/31 04:18:22;;;;;;;5.20;4.80;;;;;;;;;;5043442;28;20040;-67
2023/05/31 04:20:48;;;;;;;5.50;5.00;;;;;;;;;;5046593;28;20033;-67
2023/05/31 04:23:14;;;;;;;5.30;4.75;;;;;;;;;;5045447;28;20388;-67
2023/05/31 04:25:40;;;;;;;5.35;4.95;;;;;;;;;;5045623;28;20039;-67
2023/05/31 04:28:07;;;;;;;4.95;4.65;;;;;;;;;;5043423;28;20047;-67
2023/05/31 04:30:34;;;;;;;4.85;4.50;;;;;;;;;;5044693;28;20044;-67
2023/05/31 04:33:00;;;;;;;4.78;4.43;;;;;;;;;;5046667;28;20116;-67
2023/05/31 04:35:28;;;;;;;5.30;4.88;;;;;;;;;;5045483;28;20680;-67
2023/05/31 04:37:58;;;;;;;5.15;4.82;;;;;;;;;;5043455;28;20124;-67
2023/05/31 04:40:25;;;;;;;5.32;4.82;;;;;;;;;;5044968;28;20521;-66
2023/05/31 04:42:51;;;;;;;5.53;4.95;;;;;;;;;;5045116;28;20033;-67
2023/05/31 04:45:25;;;;;;;5.95;5.32;;;;;;;;;;5042978;28;20123;-67
2023/05/31 04:47:51;;;;;;;5.30;4.88;;;;;;;;;;5045287;28;20040;-67
2023/05/31 04:50:18;;;;;;;5.63;5.13;;;;;;;;;;5042544;28;20302;-67
2023/05/31 04:52:45;;;;;;;5.50;5.10;;;;;;;;;;5051501;28;20469;-67
2023/05/31 04:55:11;;;;;;;5.13;4.82;;;;;;;;;;5040630;28;20757;-67
2023/05/31 04:57:37;;;;;;;5.18;4.85;;;;;;;;;;5044947;28;20074;-67
2023/05/31 05:00:09;;;;;;;6.00;5.47;;;;;;;;;;5043096;28;20055;-67
2023/05/31 05:02:37;;;;;;;6.20;5.60;;;;;;;;;;5044756;28;20033;-67
2023/05/31 05:05:06;;;;;;;5.95;5.50;;;;;;;;;;5044777;28;20608;-67
2023/05/31 05:07:32;;;;;;;6.60;5.78;;;;;;;;;;5044727;28;20068;-67
2023/05/31 05:09:58;;;;;;;5.80;5.40;;;;;;;;;;5043167;28;20072;-67
2023/05/31 05:12:24;;;;;;;5.30;5.00;;;;;;;;;;5045054;28;20061;-67
2023/05/31 05:14:50;;;;;;;6.60;6.03;;;;;;;;;;5044510;28;20044;-67
2023/05/31 05:17:16;;;;;;;5.90;5.50;;;;;;;;;;5044447;28;20123;-67
2023/05/31 05:19:42;;;;;;;6.35;5.75;;;;;;;;;;5043010;28;20103;-67
2023/05/31 05:22:10;;;;;;;5.93;5.53;;;;;;;;;;5044874;28;20446;-67
2023/05/31 05:24:37;;;;;;;5.97;5.47;;;;;;;;;;5044849;28;20037;-67
2023/05/31 05:27:04;;;;;;;6.13;5.30;;;;;;;;;;5073854;28;20061;-67
2023/05/31 05:29:29;;;;;;;5.63;5.28;;;;;;;;;;5027668;28;20201;-67
2023/05/31 05:31:56;;;;;;;5.65;5.25;;;;;;;;;;5044160;28;20658;-68
2023/05/31 05:34:22;;;;;;;5.90;5.40;;;;;;;;;;5044766;28;20056;-67
2023/05/31 05:36:48;;;;;;;6.05;5.53;;;;;;;;;;5043504;28;20412;-67
2023/05/31 05:39:14;;;;;;;5.45;4.95;;;;;;;;;;5044497;28;20366;-68
2023/05/31 05:41:40;;;;;;;6.00;5.38;;;;;;;;;;5045915;28;20079;-68
2023/05/31 05:44:05;;;;;;;6.20;5.55;;;;;;;;;;5043804;28;20024;-67
2023/05/31 05:46:32;;;;;;;5.88;5.38;;;;;;;;;;5044429;28;20036;-68
2023/05/31 05:48:57;;;;;;;5.72;5.18;;;;;;;;;;5044213;28;20055;-68
2023/05/31 05:51:23;;;;;;;5.82;5.43;;;;;;;;;;5042165;28;20068;-68
2023/05/31 05:53:49;;;;;;;5.50;5.00;;;;;;;;;;5044496;28;21177;-68
2023/05/31 05:56:18;;;;;;;5.00;4.70;;;;;;;;;;5044506;28;20455;-67
2023/05/31 05:58:51;;;;;;;5.10;4.60;;;;;;;;;;5044224;28;20226;-68
2023/05/31 06:01:55;;;;;;;5.38;4.88;;;;;;;;;;5019285;28;20339;-68
2023/05/31 06:04:22;;;;;;;5.43;5.03;;;;;;;;;;5023014;28;20049;-67
2023/05/31 06:06:50;;;;;;;6.05;5.57;;;;;;;;;;5006541;28;20057;-67
2023/05/31 06:09:16;;;;;;;5.30;4.90;;;;;;;;;;5003968;28;20050;-67
2023/05/31 06:11:42;;;;;;;4.97;4.57;;;;;;;;;;5022649;28;20045;-68
2023/05/31 06:14:08;;;;;;;5.35;4.97;;;;;;;;;;5006039;28;20109;-67
2023/05/31 06:16:39;;;;;;;5.68;5.18;;;;;;;;;;5022910;28;20085;-68
2023/05/31 06:19:07;;;;;;;5.28;4.90;;;;;;;;;;5003939;28;20112;-67
2023/05/31 06:21:33;;;;;;;4.75;4.45;;;;;;;;;;5020498;28;20049;-67
2023/05/31 06:24:01;;;;;;;4.72;4.32;;;;;;;;;;5003362;28;20034;-67
2023/05/31 06:26:27;;;;;;;4.80;4.50;;;;;;;;;;5022470;28;20056;-67
2023/05/31 06:28:53;;;;;;;4.78;4.47;;;;;;;;;;5005685;28;20037;-67
2023/05/31 06:31:44;;;;;;;6.93;4.57;;;;;;;;;;5000198;28;20045;-67
2023/05/31 06:34:10;;;;;;;5.07;4.68;;;;;;;;;;5043859;28;20373;-68
2023/05/31 06:36:36;;;;;;;6.53;4.43;;;;;;;;;;5044931;28;20044;-68
2023/05/31 06:39:02;;;;;;;4.80;4.50;;;;;;;;;;5040709;28;20033;-67
2023/05/31 06:41:29;;;;;;;4.70;4.38;;;;;;;;;;5044028;28;20527;-67
2023/05/31 06:43:55;;;;;;;4.63;4.25;;;;;;;;;;5043717;28;20024;-68
2023/05/31 06:46:40;;;;;;;4.70;4.30;;;;;;;;;;5041814;28;20318;-68
2023/05/31 06:49:24;;;;;;;6.55;4.38;;;;;;;;;;5043628;28;20079;-68
2023/05/31 06:52:16;;;;;;;4.72;4.10;;;;;;;;;;5025908;28;20072;-68
2023/05/31 06:55:00;;;;;;;4.32;4.03;;;;;;;;;;5044911;28;20069;-68
2023/05/31 06:57:26;;;;;;;4.40;4.10;;;;;;;;;;5026584;28;20114;-67
2023/05/31 06:59:51;;;;;;;3.97;3.67;;;;;;;;;;5041425;28;20036;-67
2023/05/31 07:02:17;;;;;;;4.18;3.88;;;;;;;;;;5045459;28;20036;-67
2023/05/31 07:04:43;;;;;;;4.38;3.90;;;;;;;;;;5047740;28;20083;-67
2023/05/31 07:07:09;;;;;;;4.47;4.10;;;;;;;;;;5045441;28;20481;-67
2023/05/31 07:09:35;;;;;;;3.97;3.55;;;;;;;;;;5047157;28;20116;-67
2023/05/31 07:12:02;;;;;;;4.80;3.70;;;;;;;;;;5047109;28;20037;-67
2023/05/31 07:14:31;;;;;;;4.40;4.00;;;;;;;;;;5047302;28;20025;-67
2023/05/31 07:16:57;;;;;;;6.20;4.18;;;;;;;;;;5046067;28;20397;-67
2023/05/31 07:19:22;;;;;;;6.95;4.35;;;;;;;;;;5047125;28;20040;-68
2023/05/31 07:21:48;;;;;;;4.43;4.03;;;;;;;;;;5046813;28;20453;-67
2023/05/31 07:24:14;;;;;;;4.35;3.90;;;;;;;;;;5045891;28;20071;-67
2023/05/31 07:26:40;;;;;;;4.10;3.70;;;;;;;;;;5048401;28;20301;-67
2023/05/31 07:29:05;;;;;;;5.13;3.97;;;;;;;;;;5048120;28;20083;-67
2023/05/31 07:31:31;;;;;;;5.43;4.05;;;;;;;;;;5048377;28;20036;-67
2023/05/31 07:33:57;;;;;;;6.00;3.95;;;;;;;;;;5045765;28;20032;-67
2023/05/31 07:36:24;;;;;;;4.32;3.97;;;;;;;;;;5048278;28;20112;-67
2023/05/31 07:38:51;;;;;;;3.80;3.60;;;;;;;;;;5048213;28;20045;-67
2023/05/31 07:41:17;;;;;;;4.53;4.13;;;;;;;;;;5048188;28;20094;-67
2023/05/31 07:43:44;;;;;;;4.00;3.75;;;;;;;;;;5046382;28;20044;-67
2023/05/31 07:46:10;;;;;;;7.00;4.18;;;;;;;;;;5045233;28;20483;-67
2023/05/31 07:48:36;;;;;;;4.65;4.30;;;;;;;;;;5048105;28;20124;-67
2023/05/31 07:51:01;;;;;;;3.72;3.50;;;;;;;;;;5046981;28;20120;-67
2023/05/31 07:53:27;;;;;;;4.22;3.92;;;;;;;;;;5045917;28;20056;-68
2023/05/31 07:55:53;;;;;;;4.13;3.50;;;;;;;;;;5047815;28;20037;-68
2023/05/31 07:58:19;;;;;;;3.78;3.58;;;;;;;;;;5047924;28;20056;-68
2023/05/31 08:00:45;;;;;;;4.53;4.13;;;;;;;;;;5047968;28;20055;-68
2023/05/31 08:03:10;;;;;;;4.40;4.00;;;;;;;;;;5046013;28;20539;-68
2023/05/31 08:05:36;;;;;;;4.82;3.70;;;;;;;;;;5047465;28;20099;-67
2023/05/31 08:08:02;;;;;;;4.40;4.00;;;;;;;;;;5047642;28;20044;-67
2023/05/31 08:10:29;;;;;;;4.70;4.15;;;;;;;;;;5045193;28;20435;-68
2023/05/31 08:12:55;;;;;;;6.10;4.10;;;;;;;;;;5046725;28;20053;-67
2023/05/31 08:15:20;;;;;;;4.13;3.80;;;;;;;;;;5047402;28;20065;-68
2023/05/31 08:17:46;;;;;;;4.20;3.67;;;;;;;;;;5047189;28;20039;-68
2023/05/31 08:20:13;;;;;;;7.50;3.55;;;;;;;;;;5045145;28;20113;-68
2023/05/31 08:22:41;;;;;;;3.90;3.60;;;;;;;;;;5047661;28;20115;-67
2023/05/31 08:25:08;;;;;;;5.28;3.70;;;;;;;;;;5047755;28;20029;-68
2023/05/31 08:27:33;;;;;;;4.18;3.80;;;;;;;;;;5043004;28;20112;-68
2023/05/31 08:29:59;;;;;;;4.63;3.60;;;;;;;;;;5044623;28;20476;-68
2023/05/31 08:32:24;;;;;;;4.15;3.75;;;;;;;;;;5047051;28;20427;-68
2023/05/31 08:34:50;;;;;;;5.05;3.38;;;;;;;;;;5046882;28;20393;-68
2023/05/31 08:37:16;;;;;;;3.50;3.30;;;;;;;;;;5045328;28;20037;-67
2023/05/31 08:39:41;;;;;;;3.53;3.22;;;;;;;;;;5046626;28;20037;-68
2023/05/31 08:42:14;;;;;;;4.93;3.65;;;;;;;;;;5046822;28;20048;-67
2023/05/31 08:44:40;;;;;;;3.50;3.20;;;;;;;;;;5046084;28;20426;-68
2023/05/31 08:47:27;;;;;;;4.50;3.10;;;;;;;;;;5045311;28;20055;-68
2023/05/31 08:49:55;;;;;;;3.63;3.33;;;;;;;;;;5042363;28;20040;-68
2023/05/31 08:52:22;;;;;;;4.97;3.60;;;;;;;;;;5042625;28;20414;-68
2023/05/31 08:54:48;;;;;;;6.38;3.30;;;;;;;;;;5040862;28;20029;-68
2023/05/31 08:57:14;;;;;;;6.78;4.28;;;;;;;;;;5043342;28;20123;-68
2023/05/31 08:59:41;;;;;;;3.70;3.40;;;;;;;;;;5042839;28;20045;-68
2023/05/31 09:02:08;;;;;;;3.83;3.45;;;;;;;;;;5043490;28;20036;-68
2023/05/31 09:04:35;;;;;;;4.55;3.60;;;;;;;;;;5039845;28;20037;-68
2023/05/31 09:07:01;;;;;;;5.68;3.83;;;;;;;;;;5041335;28;20132;-67
2023/05/31 09:09:26;;;;;;;5.10;3.40;;;;;;;;;;5042608;28;20147;-67
2023/05/31 09:11:52;;;;;;;3.55;3.35;;;;;;;;;;5040863;28;20115;-67
2023/05/31 09:14:18;;;;;;;3.45;3.25;;;;;;;;;;5042617;28;20028;-67
2023/05/31 09:16:44;;;;;;;4.07;3.72;;;;;;;;;;5042804;28;20446;-66
2023/05/31 09:19:09;;;;;;;4.03;3.30;;;;;;;;;;5038896;28;20116;-67
2023/05/31 09:21:39;;;;;;;7.30;3.83;;;;;;;;;;5039947;28;20137;-67
2023/05/31 09:24:06;;;;;;;6.32;3.60;;;;;;;;;;5041962;28;20025;-67
2023/05/31 09:26:32;;;;;;;5.03;4.00;;;;;;;;;;5041592;28;20037;-66
2023/05/31 09:28:58;;;;;;;3.83;3.53;;;;;;;;;;5040084;28;20036;-66
2023/05/31 09:31:25;;;;;;;7.15;3.90;;;;;;;;;;5042319;28;20047;-66
2023/05/31 09:33:54;;;;;;;4.05;3.65;;;;;;;;;;5041874;28;20035;-67
2023/05/31 09:36:31;;;;;;;3.90;3.58;;;;;;;;;;5042145;28;20029;-66
2023/05/31 09:39:04;;;;;;;3.75;3.30;;;;;;;;;;5041286;28;20044;-66
2023/05/31 09:41:32;;;;;;;4.70;3.67;;;;;;;;;;5040389;28;20032;-67
2023/05/31 09:43:58;;;;;;;3.80;3.50;;;;;;;;;;5044022;28;20396;-67
2023/05/31 09:46:24;;;;;;;5.78;3.75;;;;;;;;;;5043884;28;20044;-66
2023/05/31 09:49:19;;;;;;;4.32;3.65;;;;;;;;;;5042008;28;20091;-67
2023/05/31 09:51:52;;;;;;;3.63;3.40;;;;;;;;;;5042636;28;20074;-67
2023/05/31 09:54:22;;;;;;;3.90;3.50;;;;;;;;;;5044589;28;20068;-67
2023/05/31 09:56:48;;;;;;;3.60;3.28;;;;;;;;;;5026931;28;20043;-67
2023/05/31 09:59:16;;;;;;;4.43;3.28;;;;;;;;;;5042721;28;20125;-67
2023/05/31 10:01:42;;;;;;;4.05;3.20;;;;;;;;;;5045700;28;20037;-67
2023/05/31 10:04:08;;;;;;;4.30;3.80;;;;;;;;;;5045635;28;20279;-67
2023/05/31 10:06:37;;;;;;;3.83;3.30;;;;;;;;;;5043390;28;20146;-67
2023/05/31 10:09:07;;;;;;;3.45;3.05;;;;;;;;;;5043029;28;20384;-67
2023/05/31 10:11:37;;;;;;;3.83;3.35;;;;;;;;;;5045763;28;20044;-67
2023/05/31 10:14:27;;;;;;;3.45;3.22;;;;;;;;;;5043482;28;20029;-67
2023/05/31 10:16:58;;;;;;;3.83;3.08;;;;;;;;;;5044316;28;20117;-67
2023/05/31 10:19:34;;;;;;;3.30;3.00;;;;;;;;;;5071034;28;20500;-67
2023/05/31 10:22:03;;;;;;;3.45;3.17;;;;;;;;;;5042493;28;20578;-68
2023/05/31 10:24:55;;;;;;;3.55;3.25;;;;;;;;;;5044421;28;20033;-67
2023/05/31 10:27:31;;;;;;;3.53;2.95;;;;;;;;;;5038892;28;20289;-67
2023/05/31 10:30:04;;;;;;;3.58;3.08;;;;;;;;;;5040895;28;20037;-67
2023/05/31 10:32:39;;;;;;;3.20;2.97;;;;;;;;;;5043281;28;20471;-67
2023/05/31 10:35:05;;;;;;;3.72;3.22;;;;;;;;;;5042835;28;20488;-67
2023/05/31 10:37:31;;;;;;;4.25;3.08;;;;;;;;;;5044858;28;20415;-67
2023/05/31 10:40:12;;;;;;;3.13;2.90;;;;;;;;;;5047759;28;20079;-67
2023/05/31 10:42:56;;;;;;;3.25;3.00;;;;;;;;;;5049295;28;20048;-67
2023/05/31 10:45:32;;;;;;;3.28;3.03;;;;;;;;;;5047273;28;20028;-67
2023/05/31 10:48:20;;;;;;;4.03;3.40;;;;;;;;;;5045103;28;20036;-67
2023/05/31 10:50:56;;;;;;;4.68;3.20;;;;;;;;;;5047467;28;20056;-67
2023/05/31 10:53:30;;;;;;;3.53;3.22;;;;;;;;;;5048479;28;20048;-67
2023/05/31 10:56:04;;;;;;;4.70;3.30;;;;;;;;;;5045779;28;20082;-67
2023/05/31 10:58:38;;;;;;;4.78;3.42;;;;;;;;;;5048781;28;20313;-67
2023/05/31 11:01:05;;;;;;;4.05;3.42;;;;;;;;;;5048356;28;20068;-67
2023/05/31 11:03:33;;;;;;;3.42;3.10;;;;;;;;;;5045749;28;20033;-67
2023/05/31 11:06:03;;;;;;;3.42;3.13;;;;;;;;;;5048540;28;20120;-67
2023/05/31 11:08:29;;;;;;;3.60;3.30;;;;;;;;;;5048282;28;20068;-67
2023/05/31 11:11:32;;;;;;;3.20;2.97;;;;;;;;;;5045760;28;20059;-68
2023/05/31 11:14:06;;;;;;;3.72;3.38;;;;;;;;;;5046764;28;20087;-67
2023/05/31 11:16:53;;;;;;;3.67;3.38;;;;;;;;;;5048335;28;20147;-67
2023/05/31 11:19:30;;;;;;;4.05;3.22;;;;;;;;;;5045830;28;20977;-67
2023/05/31 11:22:15;;;;;;;5.05;3.38;;;;;;;;;;5047762;28;20411;-67
2023/05/31 11:24:52;;;;;;;3.75;3.50;;;;;;;;;;5047461;28;20033;-67
2023/05/31 11:27:22;;;;;;;3.72;3.42;;;;;;;;;;5045619;28;20029;-67
2023/05/31 11:29:51;;;;;;;3.80;3.50;;;;;;;;;;5046908;28;20215;-67
2023/05/31 11:32:17;;;;;;;3.90;3.60;;;;;;;;;;5048068;28;20090;-66
2023/05/31 11:34:51;;;;;;;3.85;3.55;;;;;;;;;;5048056;28;20408;-67
2023/05/31 11:37:16;;;;;;;3.65;3.40;;;;;;;;;;5045972;28;20136;-67
2023/05/31 11:39:45;;;;;;;8.20;3.88;;;;;;;;;;5047548;28;20083;-68
2023/05/31 11:42:11;;;;;;;4.25;3.95;;;;;;;;;;5048021;28;20052;-69
2023/05/31 11:44:42;;;;;;;4.10;3.80;;;;;;;;;;5045582;28;20626;-68
2023/05/31 11:47:11;;;;;;;4.28;3.97;;;;;;;;;;5047377;28;20037;-69
2023/05/31 11:49:36;;;;;;;;;;;;;;;;;;5046574;28;20090;-68
2023/05/31 11:52:03;;;;;;;4.47;3.97;;;;;;;;;;5047493;28;19912;-68
2023/05/31 11:54:32;;;;;;;4.55;4.13;;;;;;;;;;5045485;28;20091;-68
2023/05/31 11:56:59;;;;;;;;;;;;;;;;;;5046498;28;20068;-68
2023/05/31 11:59:27;;;;;;;5.63;3.88;;;;;;;;;;5046977;28;19997;-68
2023/05/31 12:01:58;;;;;;;4.73;4.37;;;;;;;;;;5044790;28;20028;-68
2023/05/31 12:04:35;;;;;;;6.43;4.30;;;;;;;;;;5047365;28;20283;-68
2023/05/31 12:07:01;;;;;;;4.20;3.90;;;;;;;;;;5047327;28;20044;-68
2023/05/31 12:09:27;;;;;;;4.55;4.20;;;;;;;;;;5046894;28;20071;-68
2023/05/31 12:11:55;;;;;;;5.75;4.72;;;;;;;;;;5045167;28;20044;-68
2023/05/31 12:14:22;;;;;;;4.90;4.50;;;;;;;;;;5047199;28;20056;-68
2023/05/31 12:16:51;;;;;;;4.68;4.28;;;;;;;;;;5046476;28;20115;-68
2023/05/31 12:19:17;;;;;;;5.15;4.75;;;;;;;;;;5046470;28;20203;-67
2023/05/31 12:21:43;;;;;;;5.30;4.90;;;;;;;;;;5044329;28;20037;-68
2023/05/31 12:24:16;;;;;;;4.90;4.60;;;;;;;;;;5045950;28;20048;-68
2023/05/31 12:26:43;;;;;;;5.10;4.70;;;;;;;;;;5045238;28;20033;-68
2023/05/31 12:29:11;;;;;;;5.30;4.72;;;;;;;;;;5047002;28;20272;-67
2023/05/31 12:31:38;;;;;;;5.47;4.73;;;;;;;;;;5042479;28;20484;-68
2023/05/31 12:34:11;;;;;;;4.80;4.40;;;;;;;;;;5046746;28;20310;-68
2023/05/31 12:36:47;;;;;;;5.63;4.38;;;;;;;;;;5040509;28;20496;-68
2023/05/31 12:39:18;;;;;;;5.03;4.63;;;;;;;;;;5042231;28;20089;-67
2023/05/31 12:41:46;;;;;;;10.65;4.93;;;;;;;;;;5043887;28;20095;-68
2023/05/31 12:44:13;;;;;;;6.35;4.72;;;;;;;;;;5042497;28;20087;-68
2023/05/31 12:46:45;;;;;;;4.80;4.40;;;;;;;;;;5044401;28;20033;-68
2023/05/31 12:49:26;;;;;;;5.53;4.57;;;;;;;;;;5041249;28;20036;-68
2023/05/31 12:52:08;;;;;;;4.95;4.55;;;;;;;;;;5043815;28;20514;-68
2023/05/31 12:54:35;;;;;;;5.25;4.85;;;;;;;;;;5041713;28;20049;-67
2023/05/31 12:57:03;;;;;;;5.55;5.05;;;;;;;;;;5044378;28;20040;-68
2023/05/31 12:59:30;;;;;;;4.50;4.20;;;;;;;;;;5043788;28;20033;-68
2023/05/31 13:02:00;;;;;;;5.38;4.95;;;;;;;;;;5040597;28;20574;-68
2023/05/31 13:04:26;;;;;;;7.10;4.88;;;;;;;;;;5042671;28;20094;-67
2023/05/31 13:06:53;;;;;;;6.00;4.80;;;;;;;;;;5044744;28;20033;-68
2023/05/31 13:09:19;;;;;;;5.13;4.75;;;;;;;;;;5042449;28;20033;-68
2023/05/31 13:11:48;;;;;;;5.20;4.70;;;;;;;;;;5044409;28;20068;-68
2023/05/31 13:14:15;;;;;;;8.75;4.78;;;;;;;;;;5043891;28;20056;-68
2023/05/31 13:16:42;;;;;;;4.80;4.40;;;;;;;;;;5042095;28;20571;-68
2023/05/31 13:19:08;;;;;;;4.63;4.32;;;;;;;;;;5043542;28;20213;-68
2023/05/31 13:21:37;;;;;;;9.38;4.45;;;;;;;;;;5043886;28;20055;-68
2023/05/31 13:24:06;;;;;;;5.28;4.88;;;;;;;;;;5042092;28;20029;-68
2023/05/31 13:26:32;;;;;;;4.63;4.22;;;;;;;;;;5042993;28;20091;-68
2023/05/31 13:28:59;;;;;;;5.30;4.90;;;;;;;;;;5043599;28;20391;-68
2023/05/31 13:31:28;;;;;;;5.53;5.00;;;;;;;;;;5043426;28;20041;-68
2023/05/31 13:33:55;;;;;;;5.20;4.80;;;;;;;;;;5042152;28;20515;-68
2023/05/31 13:36:23;;;;;;;7.00;4.70;;;;;;;;;;5042013;28;20045;-68
2023/05/31 13:38:49;;;;;;;4.93;4.63;;;;;;;;;;5042958;28;20029;-68
2023/05/31 13:41:15;;;;;;;4.95;4.55;;;;;;;;;;5044058;28;20079;-68
2023/05/31 13:43:41;;;;;;;4.65;4.38;;;;;;;;;;5043947;28;20041;-68
2023/05/31 13:46:09;;;;;;;5.18;4.78;;;;;;;;;;5041847;28;20243;-68
2023/05/31 13:48:41;;;;;;;4.50;4.20;;;;;;;;;;5043864;28;20028;-68
2023/05/31 13:51:09;;;;;;;4.57;4.25;;;;;;;;;;5043892;28;20291;-68
2023/05/31 13:53:35;;;;;;;4.40;4.10;;;;;;;;;;5041645;28;20048;-68
2023/05/31 13:56:01;;;;;;;6.38;4.70;;;;;;;;;;5044159;28;20045;-68
2023/05/31 13:58:26;;;;;;;4.90;4.50;;;;;;;;;;5043429;28;20509;-68
2023/05/31 14:00:52;;;;;;;4.70;4.30;;;;;;;;;;5043862;28;20036;-68
2023/05/31 14:03:18;;;;;;;4.75;4.35;;;;;;;;;;5041827;28;20496;-68
2023/05/31 14:05:45;;;;;;;4.72;4.43;;;;;;;;;;5043820;28;20037;-68
2023/05/31 14:08:11;;;;;;;5.85;4.53;;;;;;;;;;5043453;28;20156;-68
2023/05/31 14:10:36;;;;;;;5.13;4.72;;;;;;;;;;5040970;28;20174;-68
2023/05/31 14:13:02;;;;;;;4.80;4.50;;;;;;;;;;5042635;28;20042;-68
2023/05/31 14:15:28;;;;;;;5.28;4.80;;;;;;;;;;5043564;28;20048;-68
2023/05/31 14:17:53;;;;;;;4.57;4.18;;;;;;;;;;5043062;28;20040;-68
2023/05/31 14:20:19;;;;;;;4.63;4.30;;;;;;;;;;5040614;28;20195;-68
2023/05/31 14:22:44;;;;;;;7.43;4.88;;;;;;;;;;5043495;28;20041;-68
2023/05/31 14:25:10;;;;;;;6.97;4.90;;;;;;;;;;5043362;28;20033;-68
2023/05/31 14:27:36;;;;;;;5.07;4.65;;;;;;;;;;5038454;28;20037;-68
2023/05/31 14:30:02;;;;;;;5.32;4.93;;;;;;;;;;5042430;28;20355;-68
2023/05/31 14:32:27;;;;;;;5.43;4.93;;;;;;;;;;5043292;28;20063;-68
2023/05/31 14:34:53;;;;;;;4.85;4.50;;;;;;;;;;5041691;28;20059;-67
2023/05/31 14:37:18;;;;;;;5.30;4.97;;;;;;;;;;5045413;28;20033;-68
2023/05/31 14:39:44;;;;;;;5.35;4.93;;;;;;;;;;5045014;28;20479;-68
2023/05/31 14:42:09;;;;;;;4.90;4.60;;;;;;;;;;5043997;28;20107;-68
2023/05/31 14:44:35;;;;;;;4.55;4.25;;;;;;;;;;5041652;28;20432;-68
2023/05/31 14:47:02;;;;;;;4.65;4.30;;;;;;;;;;5044051;28;20033;-67
2023/05/31 14:49:28;;;;;;;5.35;4.88;;;;;;;;;;5044190;28;20101;-67
2023/05/31 14:51:53;;;;;;;4.80;4.40;;;;;;;;;;5042993;28;20090;-67